sensor_id;sensor_type;location;lat;lon;timestamp;P1;durP1;ratioP1;P2;durP2;ratioP2
57057;SDS011;74999;52.848;6.748;2023-12-20T00:01:21;8.15;;;6.38;;
57057;SDS011;74999;52.848;6.748;2023-12-20T00:03:47;9.75;;;7.93;;
57057;SDS011;74999;52.848;6.748;2023-12-20T00:06:13;9.68;;;6.43;;
57057;SDS011;74999;52.848;6.748;2023-12-20T00:08:38;7.97;;;7.18;;
57057;SDS011;74999;52.848;6.748;2023-12-20T00:11:04;7.60;;;6.88;;
57057;SDS011;74999;52.848;6.748;2023-12-20T00:13:30;9.70;;;7.57;;
57057;SDS011;74999;52.848;6.748;2023-12-20T00:15:55;11.15;;;6.65;;
57057;SDS011;74999;52.848;6.748;2023-12-20T00:18:21;10.50;;;6.05;;
57057;SDS011;74999;52.848;6.748;2023-12-20T00:20:46;8.57;;;6.78;;
57057;SDS011;74999;52.848;6.748;2023-12-20T00:23:12;6.32;;;5.75;;
57057;SDS011;74999;52.848;6.748;2023-12-20T00:25:37;9.30;;;6.00;;
57057;SDS011;74999;52.848;6.748;2023-12-20T00:28:03;9.05;;;5.93;;
57057;SDS011;74999;52.848;6.748;2023-12-20T00:30:29;8.80;;;7.00;;
57057;SDS011;74999;52.848;6.748;2023-12-20T00:32:55;7.97;;;7.18;;
57057;SDS011;74999;52.848;6.748;2023-12-20T00:35:21;10.82;;;6.78;;
57057;SDS011;74999;52.848;6.748;2023-12-20T00:37:46;8.88;;;8.02;;
57057;SDS011;74999;52.848;6.748;2023-12-20T00:40:12;9.75;;;6.95;;
57057;SDS011;74999;52.848;6.748;2023-12-20T00:42:37;9.32;;;6.47;;
57057;SDS011;74999;52.848;6.748;2023-12-20T00:45:03;6.32;;;5.82;;
57057;SDS011;74999;52.848;6.748;2023-12-20T00:47:30;11.52;;;6.20;;
57057;SDS011;74999;52.848;6.748;2023-12-20T00:49:56;7.82;;;7.00;;
57057;SDS011;74999;52.848;6.748;2023-12-20T00:52:22;9.43;;;7.10;;
57057;SDS011;74999;52.848;6.748;2023-12-20T00:54:48;7.07;;;6.40;;
57057;SDS011;74999;52.848;6.748;2023-12-20T00:57:14;7.88;;;6.53;;
57057;SDS011;74999;52.848;6.748;2023-12-20T00:59:40;7.63;;;6.85;;
57057;SDS011;74999;52.848;6.748;2023-12-20T01:02:05;9.70;;;7.25;;
57057;SDS011;74999;52.848;6.748;2023-12-20T01:04:31;13.10;;;12.15;;
57057;SDS011;74999;52.848;6.748;2023-12-20T01:06:56;10.13;;;6.93;;
57057;SDS011;74999;52.848;6.748;2023-12-20T01:09:22;10.23;;;8.07;;
57057;SDS011;74999;52.848;6.748;2023-12-20T01:11:54;8.95;;;7.20;;
57057;SDS011;74999;52.848;6.748;2023-12-20T01:14:20;8.07;;;7.20;;
57057;SDS011;74999;52.848;6.748;2023-12-20T01:16:45;10.63;;;7.25;;
57057;SDS011;74999;52.848;6.748;2023-12-20T01:19:11;14.82;;;7.50;;
57057;SDS011;74999;52.848;6.748;2023-12-20T01:21:38;11.00;;;8.68;;
57057;SDS011;74999;52.848;6.748;2023-12-20T01:24:03;10.55;;;8.57;;
57057;SDS011;74999;52.848;6.748;2023-12-20T01:26:29;11.85;;;7.88;;
57057;SDS011;74999;52.848;6.748;2023-12-20T01:28:54;10.23;;;8.52;;
57057;SDS011;74999;52.848;6.748;2023-12-20T01:31:20;11.13;;;8.23;;
57057;SDS011;74999;52.848;6.748;2023-12-20T01:33:46;9.43;;;7.25;;
57057;SDS011;74999;52.848;6.748;2023-12-20T01:36:11;9.93;;;7.43;;
57057;SDS011;74999;52.848;6.748;2023-12-20T01:38:37;8.65;;;7.80;;
57057;SDS011;74999;52.848;6.748;2023-12-20T01:41:03;8.32;;;7.47;;
57057;SDS011;74999;52.848;6.748;2023-12-20T01:43:29;10.85;;;6.57;;
57057;SDS011;74999;52.848;6.748;2023-12-20T01:45:55;8.95;;;7.63;;
57057;SDS011;74999;52.848;6.748;2023-12-20T01:48:25;10.05;;;7.28;;
57057;SDS011;74999;52.848;6.748;2023-12-20T01:50:52;9.00;;;7.95;;
57057;SDS011;74999;52.848;6.748;2023-12-20T01:53:19;11.15;;;7.90;;
57057;SDS011;74999;52.848;6.748;2023-12-20T01:55:48;9.52;;;7.80;;
57057;SDS011;74999;52.848;6.748;2023-12-20T01:58:17;13.27;;;6.93;;
57057;SDS011;74999;52.848;6.748;2023-12-20T02:00:44;10.98;;;7.45;;
57057;SDS011;74999;52.848;6.748;2023-12-20T02:03:10;13.10;;;7.13;;
57057;SDS011;74999;52.848;6.748;2023-12-20T02:05:36;10.40;;;6.93;;
57057;SDS011;74999;52.848;6.748;2023-12-20T02:08:04;13.90;;;11.32;;
57057;SDS011;74999;52.848;6.748;2023-12-20T02:10:30;15.43;;;8.15;;
57057;SDS011;74999;52.848;6.748;2023-12-20T02:12:56;9.05;;;6.72;;
57057;SDS011;74999;52.848;6.748;2023-12-20T02:15:22;8.32;;;7.28;;
57057;SDS011;74999;52.848;6.748;2023-12-20T02:17:48;9.00;;;7.38;;
57057;SDS011;74999;52.848;6.748;2023-12-20T02:20:14;8.43;;;6.70;;
57057;SDS011;74999;52.848;6.748;2023-12-20T02:22:40;8.93;;;7.43;;
57057;SDS011;74999;52.848;6.748;2023-12-20T02:25:05;10.73;;;6.80;;
57057;SDS011;74999;52.848;6.748;2023-12-20T02:27:31;19.02;;;11.73;;
57057;SDS011;74999;52.848;6.748;2023-12-20T02:29:57;14.07;;;12.30;;
57057;SDS011;74999;52.848;6.748;2023-12-20T02:32:22;9.25;;;8.32;;
57057;SDS011;74999;52.848;6.748;2023-12-20T02:34:52;11.10;;;6.93;;
57057;SDS011;74999;52.848;6.748;2023-12-20T02:37:18;11.52;;;7.65;;
57057;SDS011;74999;52.848;6.748;2023-12-20T02:39:43;8.57;;;6.25;;
57057;SDS011;74999;52.848;6.748;2023-12-20T02:42:09;13.93;;;7.85;;
57057;SDS011;74999;52.848;6.748;2023-12-20T02:44:34;12.98;;;7.30;;
57057;SDS011;74999;52.848;6.748;2023-12-20T02:47:01;13.63;;;7.82;;
57057;SDS011;74999;52.848;6.748;2023-12-20T02:49:27;13.07;;;9.07;;
57057;SDS011;74999;52.848;6.748;2023-12-20T02:51:52;12.27;;;8.18;;
57057;SDS011;74999;52.848;6.748;2023-12-20T02:54:18;9.70;;;7.25;;
57057;SDS011;74999;52.848;6.748;2023-12-20T02:56:43;9.77;;;7.13;;
57057;SDS011;74999;52.848;6.748;2023-12-20T02:59:09;19.50;;;9.55;;
57057;SDS011;74999;52.848;6.748;2023-12-20T03:01:35;12.48;;;7.63;;
57057;SDS011;74999;52.848;6.748;2023-12-20T03:04:06;9.13;;;7.10;;
57057;SDS011;74999;52.848;6.748;2023-12-20T03:06:31;12.88;;;7.72;;
57057;SDS011;74999;52.848;6.748;2023-12-20T03:08:57;16.42;;;8.43;;
57057;SDS011;74999;52.848;6.748;2023-12-20T03:11:26;13.93;;;9.05;;
57057;SDS011;74999;52.848;6.748;2023-12-20T03:13:52;13.85;;;7.95;;
57057;SDS011;74999;52.848;6.748;2023-12-20T03:16:17;17.45;;;8.70;;
57057;SDS011;74999;52.848;6.748;2023-12-20T03:18:43;14.07;;;8.18;;
57057;SDS011;74999;52.848;6.748;2023-12-20T03:21:08;10.90;;;9.65;;
57057;SDS011;74999;52.848;6.748;2023-12-20T03:23:34;13.15;;;9.65;;
57057;SDS011;74999;52.848;6.748;2023-12-20T03:25:59;11.40;;;10.10;;
57057;SDS011;74999;52.848;6.748;2023-12-20T03:28:29;17.35;;;7.97;;
57057;SDS011;74999;52.848;6.748;2023-12-20T03:30:54;13.02;;;7.45;;
57057;SDS011;74999;52.848;6.748;2023-12-20T03:33:20;10.32;;;7.80;;
57057;SDS011;74999;52.848;6.748;2023-12-20T03:35:46;18.45;;;9.73;;
57057;SDS011;74999;52.848;6.748;2023-12-20T03:38:11;13.48;;;7.65;;
57057;SDS011;74999;52.848;6.748;2023-12-20T03:40:37;11.88;;;8.90;;
57057;SDS011;74999;52.848;6.748;2023-12-20T03:43:03;15.70;;;8.20;;
57057;SDS011;74999;52.848;6.748;2023-12-20T03:45:28;13.68;;;8.27;;
57057;SDS011;74999;52.848;6.748;2023-12-20T03:47:54;17.20;;;8.38;;
57057;SDS011;74999;52.848;6.748;2023-12-20T03:50:24;13.82;;;7.60;;
57057;SDS011;74999;52.848;6.748;2023-12-20T03:52:51;16.55;;;7.55;;
57057;SDS011;74999;52.848;6.748;2023-12-20T03:55:16;14.35;;;9.05;;
57057;SDS011;74999;52.848;6.748;2023-12-20T03:57:42;14.93;;;8.40;;
57057;SDS011;74999;52.848;6.748;2023-12-20T04:00:08;15.85;;;7.80;;
57057;SDS011;74999;52.848;6.748;2023-12-20T04:02:37;18.48;;;9.32;;
57057;SDS011;74999;52.848;6.748;2023-12-20T04:05:03;18.98;;;8.88;;
57057;SDS011;74999;52.848;6.748;2023-12-20T04:07:30;17.52;;;7.82;;
57057;SDS011;74999;52.848;6.748;2023-12-20T04:09:55;16.40;;;8.63;;
57057;SDS011;74999;52.848;6.748;2023-12-20T04:12:21;18.42;;;7.70;;
57057;SDS011;74999;52.848;6.748;2023-12-20T04:14:46;12.57;;;7.72;;
57057;SDS011;74999;52.848;6.748;2023-12-20T04:17:12;18.13;;;8.55;;
57057;SDS011;74999;52.848;6.748;2023-12-20T04:19:37;24.70;;;10.13;;
57057;SDS011;74999;52.848;6.748;2023-12-20T04:22:03;15.75;;;8.85;;
57057;SDS011;74999;52.848;6.748;2023-12-20T04:24:29;11.68;;;8.07;;
57057;SDS011;74999;52.848;6.748;2023-12-20T04:26:54;15.52;;;9.27;;
57057;SDS011;74999;52.848;6.748;2023-12-20T04:29:20;23.80;;;10.50;;
57057;SDS011;74999;52.848;6.748;2023-12-20T04:31:45;14.80;;;8.95;;
57057;SDS011;74999;52.848;6.748;2023-12-20T04:34:11;18.98;;;9.75;;
57057;SDS011;74999;52.848;6.748;2023-12-20T04:36:37;15.93;;;9.07;;
57057;SDS011;74999;52.848;6.748;2023-12-20T04:39:02;20.55;;;9.15;;
57057;SDS011;74999;52.848;6.748;2023-12-20T04:41:28;15.35;;;8.02;;
57057;SDS011;74999;52.848;6.748;2023-12-20T04:43:53;17.73;;;8.38;;
57057;SDS011;74999;52.848;6.748;2023-12-20T04:46:19;18.08;;;8.23;;
57057;SDS011;74999;52.848;6.748;2023-12-20T04:48:44;16.05;;;9.27;;
57057;SDS011;74999;52.848;6.748;2023-12-20T04:51:10;15.57;;;8.20;;
57057;SDS011;74999;52.848;6.748;2023-12-20T04:53:35;15.45;;;8.35;;
57057;SDS011;74999;52.848;6.748;2023-12-20T04:56:01;16.25;;;9.57;;
57057;SDS011;74999;52.848;6.748;2023-12-20T04:58:27;12.65;;;7.65;;
57057;SDS011;74999;52.848;6.748;2023-12-20T05:00:52;18.42;;;9.02;;
57057;SDS011;74999;52.848;6.748;2023-12-20T05:03:18;15.20;;;8.70;;
57057;SDS011;74999;52.848;6.748;2023-12-20T05:05:43;14.73;;;7.60;;
57057;SDS011;74999;52.848;6.748;2023-12-20T05:08:09;18.52;;;8.25;;
57057;SDS011;74999;52.848;6.748;2023-12-20T05:10:34;13.18;;;7.43;;
57057;SDS011;74999;52.848;6.748;2023-12-20T05:13:01;21.10;;;8.43;;
57057;SDS011;74999;52.848;6.748;2023-12-20T05:15:27;14.95;;;8.55;;
57057;SDS011;74999;52.848;6.748;2023-12-20T05:17:52;14.35;;;7.82;;
57057;SDS011;74999;52.848;6.748;2023-12-20T05:20:18;17.77;;;8.85;;
57057;SDS011;74999;52.848;6.748;2023-12-20T05:22:43;18.58;;;10.20;;
57057;SDS011;74999;52.848;6.748;2023-12-20T05:25:10;18.10;;;11.55;;
57057;SDS011;74999;52.848;6.748;2023-12-20T05:27:35;14.15;;;8.38;;
57057;SDS011;74999;52.848;6.748;2023-12-20T05:30:01;18.83;;;7.97;;
57057;SDS011;74999;52.848;6.748;2023-12-20T05:32:27;16.88;;;8.82;;
57057;SDS011;74999;52.848;6.748;2023-12-20T05:34:52;18.42;;;8.80;;
57057;SDS011;74999;52.848;6.748;2023-12-20T05:37:18;12.65;;;9.10;;
57057;SDS011;74999;52.848;6.748;2023-12-20T05:39:43;19.95;;;9.68;;
57057;SDS011;74999;52.848;6.748;2023-12-20T05:42:09;13.82;;;10.48;;
57057;SDS011;74999;52.848;6.748;2023-12-20T05:44:34;13.07;;;8.82;;
57057;SDS011;74999;52.848;6.748;2023-12-20T05:47:00;15.30;;;8.55;;
57057;SDS011;74999;52.848;6.748;2023-12-20T05:49:26;18.38;;;8.57;;
57057;SDS011;74999;52.848;6.748;2023-12-20T05:51:51;15.60;;;12.90;;
57057;SDS011;74999;52.848;6.748;2023-12-20T05:54:17;22.35;;;9.73;;
57057;SDS011;74999;52.848;6.748;2023-12-20T05:56:42;17.92;;;9.52;;
57057;SDS011;74999;52.848;6.748;2023-12-20T05:59:08;15.68;;;7.90;;
57057;SDS011;74999;52.848;6.748;2023-12-20T06:01:34;16.60;;;8.60;;
57057;SDS011;74999;52.848;6.748;2023-12-20T06:03:59;14.98;;;9.40;;
57057;SDS011;74999;52.848;6.748;2023-12-20T06:06:25;15.65;;;7.72;;
57057;SDS011;74999;52.848;6.748;2023-12-20T06:08:51;23.88;;;10.45;;
57057;SDS011;74999;52.848;6.748;2023-12-20T06:11:16;24.38;;;8.32;;
57057;SDS011;74999;52.848;6.748;2023-12-20T06:13:42;19.73;;;9.60;;
57057;SDS011;74999;52.848;6.748;2023-12-20T06:16:07;22.27;;;8.00;;
57057;SDS011;74999;52.848;6.748;2023-12-20T06:18:33;23.55;;;8.63;;
57057;SDS011;74999;52.848;6.748;2023-12-20T06:20:58;17.10;;;8.48;;
57057;SDS011;74999;52.848;6.748;2023-12-20T06:23:24;16.10;;;8.05;;
57057;SDS011;74999;52.848;6.748;2023-12-20T06:25:50;14.25;;;8.73;;
57057;SDS011;74999;52.848;6.748;2023-12-20T06:28:15;16.13;;;8.27;;
57057;SDS011;74999;52.848;6.748;2023-12-20T06:30:41;16.27;;;8.82;;
57057;SDS011;74999;52.848;6.748;2023-12-20T06:33:06;16.35;;;9.43;;
57057;SDS011;74999;52.848;6.748;2023-12-20T06:35:32;19.60;;;9.68;;
57057;SDS011;74999;52.848;6.748;2023-12-20T06:37:58;17.67;;;7.93;;
57057;SDS011;74999;52.848;6.748;2023-12-20T06:40:23;17.40;;;8.63;;
57057;SDS011;74999;52.848;6.748;2023-12-20T06:42:49;21.38;;;8.38;;
57057;SDS011;74999;52.848;6.748;2023-12-20T06:45:14;15.45;;;9.88;;
57057;SDS011;74999;52.848;6.748;2023-12-20T06:47:40;19.73;;;8.48;;
57057;SDS011;74999;52.848;6.748;2023-12-20T06:50:06;18.80;;;8.45;;
57057;SDS011;74999;52.848;6.748;2023-12-20T06:52:33;14.95;;;9.55;;
57057;SDS011;74999;52.848;6.748;2023-12-20T06:54:59;18.63;;;8.45;;
57057;SDS011;74999;52.848;6.748;2023-12-20T06:57:25;17.30;;;12.00;;
57057;SDS011;74999;52.848;6.748;2023-12-20T06:59:51;17.70;;;9.57;;
57057;SDS011;74999;52.848;6.748;2023-12-20T07:02:17;19.27;;;8.93;;
57057;SDS011;74999;52.848;6.748;2023-12-20T07:04:42;19.23;;;8.25;;
57057;SDS011;74999;52.848;6.748;2023-12-20T07:07:08;15.93;;;9.65;;
57057;SDS011;74999;52.848;6.748;2023-12-20T07:09:34;16.65;;;8.52;;
57057;SDS011;74999;52.848;6.748;2023-12-20T07:11:59;13.65;;;8.88;;
57057;SDS011;74999;52.848;6.748;2023-12-20T07:14:25;16.08;;;7.45;;
57057;SDS011;74999;52.848;6.748;2023-12-20T07:16:50;16.70;;;11.43;;
57057;SDS011;74999;52.848;6.748;2023-12-20T07:19:16;17.95;;;7.10;;
57057;SDS011;74999;52.848;6.748;2023-12-20T07:21:41;13.55;;;12.18;;
57057;SDS011;74999;52.848;6.748;2023-12-20T07:24:07;19.35;;;9.18;;
57057;SDS011;74999;52.848;6.748;2023-12-20T07:26:33;20.42;;;7.32;;
57057;SDS011;74999;52.848;6.748;2023-12-20T07:28:59;12.93;;;7.97;;
57057;SDS011;74999;52.848;6.748;2023-12-20T07:31:25;16.55;;;9.27;;
57057;SDS011;74999;52.848;6.748;2023-12-20T07:33:50;18.10;;;8.00;;
57057;SDS011;74999;52.848;6.748;2023-12-20T07:36:16;13.65;;;7.45;;
57057;SDS011;74999;52.848;6.748;2023-12-20T07:38:41;17.73;;;8.23;;
57057;SDS011;74999;52.848;6.748;2023-12-20T07:41:09;18.02;;;9.23;;
57057;SDS011;74999;52.848;6.748;2023-12-20T07:43:35;15.27;;;13.02;;
57057;SDS011;74999;52.848;6.748;2023-12-20T07:46:07;16.52;;;8.82;;
57057;SDS011;74999;52.848;6.748;2023-12-20T07:48:36;14.93;;;8.43;;
57057;SDS011;74999;52.848;6.748;2023-12-20T07:51:03;17.50;;;7.57;;
57057;SDS011;74999;52.848;6.748;2023-12-20T07:53:29;16.30;;;8.15;;
57057;SDS011;74999;52.848;6.748;2023-12-20T07:55:55;19.05;;;8.82;;
57057;SDS011;74999;52.848;6.748;2023-12-20T07:58:20;18.02;;;8.57;;
57057;SDS011;74999;52.848;6.748;2023-12-20T08:00:47;19.63;;;8.85;;
57057;SDS011;74999;52.848;6.748;2023-12-20T08:03:12;21.75;;;8.77;;
57057;SDS011;74999;52.848;6.748;2023-12-20T08:05:38;19.75;;;9.63;;
57057;SDS011;74999;52.848;6.748;2023-12-20T08:08:06;14.38;;;12.25;;
57057;SDS011;74999;52.848;6.748;2023-12-20T08:10:32;19.00;;;9.18;;
57057;SDS011;74999;52.848;6.748;2023-12-20T08:12:58;18.63;;;11.75;;
57057;SDS011;74999;52.848;6.748;2023-12-20T08:15:23;22.30;;;11.38;;
57057;SDS011;74999;52.848;6.748;2023-12-20T08:17:49;23.13;;;8.68;;
57057;SDS011;74999;52.848;6.748;2023-12-20T08:20:18;15.43;;;7.32;;
57057;SDS011;74999;52.848;6.748;2023-12-20T08:22:43;17.25;;;7.78;;
57057;SDS011;74999;52.848;6.748;2023-12-20T08:25:09;23.35;;;8.60;;
57057;SDS011;74999;52.848;6.748;2023-12-20T08:27:40;18.60;;;8.25;;
57057;SDS011;74999;52.848;6.748;2023-12-20T08:30:07;15.90;;;9.05;;
57057;SDS011;74999;52.848;6.748;2023-12-20T08:37:25;18.58;;;9.68;;
57057;SDS011;74999;52.848;6.748;2023-12-20T08:39:50;16.38;;;9.02;;
57057;SDS011;74999;52.848;6.748;2023-12-20T08:42:16;17.15;;;9.55;;
57057;SDS011;74999;52.848;6.748;2023-12-20T08:44:42;17.05;;;8.32;;
57057;SDS011;74999;52.848;6.748;2023-12-20T08:47:07;19.02;;;13.65;;
57057;SDS011;74999;52.848;6.748;2023-12-20T08:49:33;17.27;;;7.72;;
57057;SDS011;74999;52.848;6.748;2023-12-20T08:51:58;13.68;;;8.52;;
57057;SDS011;74999;52.848;6.748;2023-12-20T08:54:24;15.38;;;8.68;;
57057;SDS011;74999;52.848;6.748;2023-12-20T08:56:49;18.63;;;8.52;;
57057;SDS011;74999;52.848;6.748;2023-12-20T08:59:15;15.18;;;10.02;;
57057;SDS011;74999;52.848;6.748;2023-12-20T09:01:41;15.05;;;7.57;;
57057;SDS011;74999;52.848;6.748;2023-12-20T09:04:06;20.02;;;9.43;;
57057;SDS011;74999;52.848;6.748;2023-12-20T09:06:32;17.65;;;8.23;;
57057;SDS011;74999;52.848;6.748;2023-12-20T09:08:57;18.55;;;9.48;;
57057;SDS011;74999;52.848;6.748;2023-12-20T09:11:23;18.52;;;10.98;;
57057;SDS011;74999;52.848;6.748;2023-12-20T09:13:49;23.15;;;11.10;;
57057;SDS011;74999;52.848;6.748;2023-12-20T09:16:14;13.32;;;8.50;;
57057;SDS011;74999;52.848;6.748;2023-12-20T09:18:41;18.10;;;8.45;;
57057;SDS011;74999;52.848;6.748;2023-12-20T09:21:07;18.38;;;8.95;;
57057;SDS011;74999;52.848;6.748;2023-12-20T09:23:32;17.95;;;7.90;;
57057;SDS011;74999;52.848;6.748;2023-12-20T09:25:58;19.42;;;9.50;;
57057;SDS011;74999;52.848;6.748;2023-12-20T09:28:24;26.35;;;10.35;;
57057;SDS011;74999;52.848;6.748;2023-12-20T09:30:49;14.18;;;7.93;;
57057;SDS011;74999;52.848;6.748;2023-12-20T09:33:15;12.57;;;7.38;;
57057;SDS011;74999;52.848;6.748;2023-12-20T09:35:41;15.35;;;7.78;;
57057;SDS011;74999;52.848;6.748;2023-12-20T09:38:07;16.27;;;8.35;;
57057;SDS011;74999;52.848;6.748;2023-12-20T09:40:33;14.45;;;9.30;;
57057;SDS011;74999;52.848;6.748;2023-12-20T09:43:04;18.08;;;8.63;;
57057;SDS011;74999;52.848;6.748;2023-12-20T09:45:35;23.15;;;9.77;;
57057;SDS011;74999;52.848;6.748;2023-12-20T09:48:01;16.77;;;8.90;;
57057;SDS011;74999;52.848;6.748;2023-12-20T09:50:30;16.50;;;9.20;;
57057;SDS011;74999;52.848;6.748;2023-12-20T09:52:57;17.42;;;9.18;;
57057;SDS011;74999;52.848;6.748;2023-12-20T09:55:24;16.17;;;8.68;;
57057;SDS011;74999;52.848;6.748;2023-12-20T09:57:51;16.65;;;7.75;;
57057;SDS011;74999;52.848;6.748;2023-12-20T10:00:17;14.27;;;7.85;;
57057;SDS011;74999;52.848;6.748;2023-12-20T10:03:16;9.57;;;6.18;;
57057;SDS011;74999;52.848;6.748;2023-12-20T10:08:00;7.15;;;5.47;;
57057;SDS011;74999;52.848;6.748;2023-12-20T10:10:27;7.63;;;6.55;;
57057;SDS011;74999;52.848;6.748;2023-12-20T10:13:05;8.57;;;6.35;;
57057;SDS011;74999;52.848;6.748;2023-12-20T10:15:34;7.32;;;6.57;;
57057;SDS011;74999;52.848;6.748;2023-12-20T10:18:01;8.68;;;7.13;;
57057;SDS011;74999;52.848;6.748;2023-12-20T10:20:27;8.48;;;7.13;;
57057;SDS011;74999;52.848;6.748;2023-12-20T10:22:56;7.82;;;6.75;;
57057;SDS011;74999;52.848;6.748;2023-12-20T10:25:22;8.40;;;7.07;;
57057;SDS011;74999;52.848;6.748;2023-12-20T10:27:49;8.27;;;6.85;;
57057;SDS011;74999;52.848;6.748;2023-12-20T10:30:33;10.07;;;8.85;;
57057;SDS011;74999;52.848;6.748;2023-12-20T10:32:58;8.30;;;7.65;;
57057;SDS011;74999;52.848;6.748;2023-12-20T10:35:24;8.00;;;7.30;;
57057;SDS011;74999;52.848;6.748;2023-12-20T10:37:50;8.25;;;6.88;;
57057;SDS011;74999;52.848;6.748;2023-12-20T10:40:20;7.18;;;6.47;;
57057;SDS011;74999;52.848;6.748;2023-12-20T10:42:46;7.10;;;6.25;;
57057;SDS011;74999;52.848;6.748;2023-12-20T10:45:12;8.02;;;7.25;;
57057;SDS011;74999;52.848;6.748;2023-12-20T10:47:39;7.35;;;6.75;;
57057;SDS011;74999;52.848;6.748;2023-12-20T10:50:06;9.75;;;7.82;;
57057;SDS011;74999;52.848;6.748;2023-12-20T10:52:33;10.80;;;6.40;;
57057;SDS011;74999;52.848;6.748;2023-12-20T10:55:00;7.32;;;6.63;;
57057;SDS011;74999;52.848;6.748;2023-12-20T10:57:26;7.78;;;7.18;;
57057;SDS011;74999;52.848;6.748;2023-12-20T10:59:53;8.13;;;7.43;;
57057;SDS011;74999;52.848;6.748;2023-12-20T11:02:19;6.70;;;6.05;;
57057;SDS011;74999;52.848;6.748;2023-12-20T11:04:57;8.93;;;6.20;;
57057;SDS011;74999;52.848;6.748;2023-12-20T11:07:33;8.15;;;6.30;;
57057;SDS011;74999;52.848;6.748;2023-12-20T11:12:43;8.75;;;7.10;;
57057;SDS011;74999;52.848;6.748;2023-12-20T11:15:24;8.45;;;7.78;;
57057;SDS011;74999;52.848;6.748;2023-12-20T11:20:24;7.90;;;7.18;;
57057;SDS011;74999;52.848;6.748;2023-12-20T11:23:04;9.35;;;6.47;;
57057;SDS011;74999;52.848;6.748;2023-12-20T11:25:36;8.25;;;7.55;;
57057;SDS011;74999;52.848;6.748;2023-12-20T11:28:12;12.55;;;7.53;;
57057;SDS011;74999;52.848;6.748;2023-12-20T11:33:58;10.45;;;6.18;;
57057;SDS011;74999;52.848;6.748;2023-12-20T11:36:19;10.05;;;9.05;;
57057;SDS011;74999;52.848;6.748;2023-12-20T11:38:58;9.43;;;6.38;;
57057;SDS011;74999;52.848;6.748;2023-12-20T11:41:25;9.82;;;7.53;;
57057;SDS011;74999;52.848;6.748;2023-12-20T11:43:53;8.57;;;7.57;;
57057;SDS011;74999;52.848;6.748;2023-12-20T11:46:21;10.80;;;9.75;;
57057;SDS011;74999;52.848;6.748;2023-12-20T11:48:47;13.02;;;7.25;;
57057;SDS011;74999;52.848;6.748;2023-12-20T11:51:13;12.93;;;7.55;;
57057;SDS011;74999;52.848;6.748;2023-12-20T11:53:39;9.55;;;6.50;;
57057;SDS011;74999;52.848;6.748;2023-12-20T11:56:07;11.02;;;6.60;;
57057;SDS011;74999;52.848;6.748;2023-12-20T11:58:33;12.35;;;7.57;;
57057;SDS011;74999;52.848;6.748;2023-12-20T12:00:59;11.85;;;6.18;;
57057;SDS011;74999;52.848;6.748;2023-12-20T12:03:25;9.30;;;6.78;;
57057;SDS011;74999;52.848;6.748;2023-12-20T12:05:51;10.48;;;7.30;;
57057;SDS011;74999;52.848;6.748;2023-12-20T12:08:16;7.03;;;6.32;;
57057;SDS011;74999;52.848;6.748;2023-12-20T12:10:43;13.43;;;12.25;;
57057;SDS011;74999;52.848;6.748;2023-12-20T12:13:09;9.02;;;7.03;;
57057;SDS011;74999;52.848;6.748;2023-12-20T12:15:36;10.50;;;6.78;;
57057;SDS011;74999;52.848;6.748;2023-12-20T12:18:01;7.47;;;6.70;;
57057;SDS011;74999;52.848;6.748;2023-12-20T12:20:27;11.43;;;8.00;;
57057;SDS011;74999;52.848;6.748;2023-12-20T12:23:03;7.32;;;6.15;;
57057;SDS011;74999;52.848;6.748;2023-12-20T12:25:30;9.35;;;7.03;;
57057;SDS011;74999;52.848;6.748;2023-12-20T12:27:56;9.57;;;8.18;;
57057;SDS011;74999;52.848;6.748;2023-12-20T12:30:23;8.57;;;7.78;;
57057;SDS011;74999;52.848;6.748;2023-12-20T12:32:50;9.57;;;6.75;;
57057;SDS011;74999;52.848;6.748;2023-12-20T12:37:43;8.15;;;7.35;;
57057;SDS011;74999;52.848;6.748;2023-12-20T12:40:15;11.48;;;7.72;;
57057;SDS011;74999;52.848;6.748;2023-12-20T12:42:42;13.50;;;7.63;;
57057;SDS011;74999;52.848;6.748;2023-12-20T12:47:36;10.35;;;8.32;;
57057;SDS011;74999;52.848;6.748;2023-12-20T12:50:02;8.18;;;7.38;;
57057;SDS011;74999;52.848;6.748;2023-12-20T12:52:28;10.52;;;9.73;;
57057;SDS011;74999;52.848;6.748;2023-12-20T12:54:53;9.43;;;7.22;;
57057;SDS011;74999;52.848;6.748;2023-12-20T12:57:19;8.85;;;6.85;;
57057;SDS011;74999;52.848;6.748;2023-12-20T12:59:45;8.02;;;7.22;;
57057;SDS011;74999;52.848;6.748;2023-12-20T13:02:11;8.45;;;6.43;;
57057;SDS011;74999;52.848;6.748;2023-12-20T13:04:38;9.70;;;6.32;;
57057;SDS011;74999;52.848;6.748;2023-12-20T13:07:07;8.57;;;7.72;;
57057;SDS011;74999;52.848;6.748;2023-12-20T13:09:36;8.30;;;6.65;;
57057;SDS011;74999;52.848;6.748;2023-12-20T13:12:01;9.00;;;6.70;;
57057;SDS011;74999;52.848;6.748;2023-12-20T13:14:29;7.28;;;6.78;;
57057;SDS011;74999;52.848;6.748;2023-12-20T13:16:57;9.73;;;7.03;;
57057;SDS011;74999;52.848;6.748;2023-12-20T13:19:23;8.40;;;7.57;;
57057;SDS011;74999;52.848;6.748;2023-12-20T13:21:49;11.15;;;7.65;;
57057;SDS011;74999;52.848;6.748;2023-12-20T13:24:14;7.40;;;6.65;;
57057;SDS011;74999;52.848;6.748;2023-12-20T13:26:40;9.63;;;6.65;;
57057;SDS011;74999;52.848;6.748;2023-12-20T13:29:05;7.72;;;6.93;;
57057;SDS011;74999;52.848;6.748;2023-12-20T13:31:31;8.80;;;6.38;;
57057;SDS011;74999;52.848;6.748;2023-12-20T13:33:57;9.40;;;6.80;;
57057;SDS011;74999;52.848;6.748;2023-12-20T13:36:22;7.88;;;7.13;;
57057;SDS011;74999;52.848;6.748;2023-12-20T13:38:48;9.02;;;8.30;;
57057;SDS011;74999;52.848;6.748;2023-12-20T13:41:13;9.45;;;6.00;;
57057;SDS011;74999;52.848;6.748;2023-12-20T13:43:39;9.35;;;6.63;;
57057;SDS011;74999;52.848;6.748;2023-12-20T13:46:04;13.02;;;10.77;;
57057;SDS011;74999;52.848;6.748;2023-12-20T13:48:30;7.63;;;6.38;;
57057;SDS011;74999;52.848;6.748;2023-12-20T13:50:56;8.27;;;7.55;;
57057;SDS011;74999;52.848;6.748;2023-12-20T13:53:21;8.30;;;6.47;;
57057;SDS011;74999;52.848;6.748;2023-12-20T13:55:47;8.15;;;7.30;;
57057;SDS011;74999;52.848;6.748;2023-12-20T13:58:13;7.88;;;7.05;;
57057;SDS011;74999;52.848;6.748;2023-12-20T14:00:39;6.63;;;5.90;;
57057;SDS011;74999;52.848;6.748;2023-12-20T14:03:05;8.82;;;7.85;;
57057;SDS011;74999;52.848;6.748;2023-12-20T14:05:32;9.27;;;6.60;;
57057;SDS011;74999;52.848;6.748;2023-12-20T14:07:58;7.65;;;6.75;;
57057;SDS011;74999;52.848;6.748;2023-12-20T14:10:24;6.95;;;6.22;;
57057;SDS011;74999;52.848;6.748;2023-12-20T14:12:53;6.93;;;6.22;;
57057;SDS011;74999;52.848;6.748;2023-12-20T14:15:19;12.70;;;8.18;;
57057;SDS011;74999;52.848;6.748;2023-12-20T14:17:45;8.88;;;8.00;;
57057;SDS011;74999;52.848;6.748;2023-12-20T14:20:10;8.10;;;7.30;;
57057;SDS011;74999;52.848;6.748;2023-12-20T14:22:39;6.57;;;5.97;;
57057;SDS011;74999;52.848;6.748;2023-12-20T14:25:10;11.68;;;10.63;;
57057;SDS011;74999;52.848;6.748;2023-12-20T14:27:37;8.63;;;7.75;;
57057;SDS011;74999;52.848;6.748;2023-12-20T14:30:03;8.35;;;7.35;;
57057;SDS011;74999;52.848;6.748;2023-12-20T14:32:28;7.57;;;6.72;;
57057;SDS011;74999;52.848;6.748;2023-12-20T14:34:54;14.35;;;13.35;;
57057;SDS011;74999;52.848;6.748;2023-12-20T14:37:20;11.57;;;7.10;;
57057;SDS011;74999;52.848;6.748;2023-12-20T14:39:45;8.25;;;7.55;;
57057;SDS011;74999;52.848;6.748;2023-12-20T14:42:11;7.35;;;6.53;;
57057;SDS011;74999;52.848;6.748;2023-12-20T14:44:41;9.00;;;8.13;;
57057;SDS011;74999;52.848;6.748;2023-12-20T14:47:08;7.70;;;6.15;;
57057;SDS011;74999;52.848;6.748;2023-12-20T14:49:33;11.07;;;10.15;;
57057;SDS011;74999;52.848;6.748;2023-12-20T14:52:00;11.27;;;8.95;;
57057;SDS011;74999;52.848;6.748;2023-12-20T14:54:25;10.13;;;9.00;;